Time;durP1;ratioP1;P1;durP2;ratioP2;P2;SDS_P1;SDS_P2;PMS_P1;PMS_P2;Temp;Humidity;BMP_temperature;BMP_pressure;BME280_temperature;BME280_humidity;BME280_pressure;Samples;Min_cycle;Max_cycle;Signal;HPM_P1;HPM_P2
2023/04/17 05:52:17;;;;;;;14.43;11.02;;;;;;;;;;10539563;27;20305;-85
2023/04/17 05:57:18;;;;;;;10.82;9.38;;;;;;;;;;10504475;28;20024;-85
2023/04/17 06:02:19;;;;;;;9.13;8.18;;;;;;;;;;10504121;28;20027;-85
2023/04/17 06:07:20;;;;;;;;;;;;;;;;;;10503869;28;20051;-85
2023/04/17 06:12:22;;;;;;;17.67;13.23;;;;;;;;;;10503982;28;19904;-85
2023/04/17 06:17:23;;;;;;;11.07;9.45;;;;;;;;;;10502839;28;20576;-85
2023/04/17 06:22:24;;;;;;;20.63;16.40;;;;;;;;;;10502963;28;20547;-85
2023/04/17 06:27:25;;;;;;;;;;;;;;;;;;10503289;28;20093;-85
2023/04/17 06:32:26;;;;;;;12.90;11.52;;;;;;;;;;10503184;28;19904;-85
2023/04/17 06:37:27;;;;;;;;;;;;;;;;;;10503435;28;20128;-85
2023/04/17 06:42:28;;;;;;;13.07;11.73;;;;;;;;;;10502807;28;19909;-85
2023/04/17 06:47:29;;;;;;;;;;;;;;;;;;10504230;28;20053;-86
2023/04/17 06:52:30;;;;;;;21.42;18.30;;;;;;;;;;10531443;28;20004;-85
2023/04/17 06:57:32;;;;;;;;;;;;;;;;;;10527146;28;20089;-83
2023/04/17 07:02:33;;;;;;;12.27;10.25;;;;;;;;;;10516882;28;20350;-81
2023/04/17 07:07:35;;;;;;;;;;;;;;;;;;10511741;28;20414;-80
2023/04/17 07:12:36;;;;;;;;;;;;;;;;;;10497132;28;19904;-82
2023/04/17 07:17:37;;;;;;;16.75;14.95;;;;;;;;;;10497972;28;19926;-83
2023/04/17 07:22:38;;;;;;;14.57;12.45;;;;;;;;;;10502319;28;20498;-83
2023/04/17 07:27:39;;;;;;;14.02;12.27;;;;;;;;;;10500580;28;20052;-83
2023/04/17 07:32:41;;;;;;;13.02;11.73;;;;;;;;;;10516883;28;20509;-84
2023/04/17 07:37:42;;;;;;;23.08;19.67;;;;;;;;;;10515273;28;20032;-83
2023/04/17 07:42:46;;;;;;;21.50;16.45;;;;;;;;;;10497554;28;20115;-83
2023/04/17 07:47:47;;;;;;;18.73;16.05;;;;;;;;;;10497346;28;20032;-83
2023/04/17 07:52:48;;;;;;;;;;;;;;;;;;10503690;28;20024;-84
2023/04/17 07:57:50;;;;;;;22.02;19.50;;;;;;;;;;10512156;28;19993;-83
2023/04/17 08:02:51;;;;;;;19.55;17.58;;;;;;;;;;10513582;28;20040;-83
2023/04/17 08:07:52;;;;;;;20.90;18.67;;;;;;;;;;10505046;28;20044;-83
2023/04/17 08:12:54;;;;;;;19.92;17.80;;;;;;;;;;10506236;28;20108;-83
2023/04/17 08:17:56;;;;;;;16.95;15.15;;;;;;;;;;10531597;28;20016;-83
2023/04/17 08:22:57;;;;;;;16.38;14.60;;;;;;;;;;10508775;28;20486;-83
2023/04/17 08:27:58;;;;;;;21.42;19.13;;;;;;;;;;10507683;28;20048;-83
2023/04/17 08:32:59;;;;;;;16.30;13.63;;;;;;;;;;10537326;28;20025;-82
2023/04/17 08:38:00;;;;;;;18.85;16.23;;;;;;;;;;10509231;28;20024;-84
2023/04/17 08:43:02;;;;;;;17.42;15.15;;;;;;;;;;10543376;28;20107;-80
2023/04/17 08:48:05;;;;;;;19.63;16.63;;;;;;;;;;10546744;28;20048;-83
2023/04/17 08:53:06;;;;;;;15.55;12.88;;;;;;;;;;10510795;28;20112;-84
2023/04/17 08:58:07;;;;;;;15.77;12.85;;;;;;;;;;10496949;28;20048;-84
2023/04/17 09:03:10;;;;;;;10.90;9.77;;;;;;;;;;10495808;28;20020;-85
2023/04/17 09:08:16;;;;;;;13.57;11.05;;;;;;;;;;10498048;28;20028;-85
2023/04/17 09:13:18;;;;;;;15.70;12.70;;;;;;;;;;10500903;28;20383;-87
2023/04/17 09:18:23;;;;;;;13.10;11.45;;;;;;;;;;10498849;28;20060;-85
2023/04/17 09:23:26;;;;;;;16.23;13.60;;;;;;;;;;10496842;28;20446;-86
2023/04/17 09:28:28;;;;;;;11.57;10.38;;;;;;;;;;10496758;28;20036;-86
2023/04/17 09:33:30;;;;;;;15.82;13.98;;;;;;;;;;10514014;28;20084;-85
2023/04/17 09:38:39;;;;;;;13.23;10.93;;;;;;;;;;10495035;28;20062;-86
2023/04/17 09:43:44;;;;;;;15.48;12.73;;;;;;;;;;10513417;28;20127;-85
2023/04/17 09:48:49;;;;;;;13.35;11.95;;;;;;;;;;10506996;28;20040;-85
2023/04/17 09:53:55;;;;;;;15.93;11.85;;;;;;;;;;10513407;28;20060;-86
2023/04/17 09:59:13;;;;;;;11.38;9.60;;;;;;;;;;10496876;28;20017;-85
2023/04/17 10:04:22;;;;;;;12.95;10.80;;;;;;;;;;10495523;28;20039;-84
2023/04/17 10:09:29;;;;;;;10.38;9.35;;;;;;;;;;10496198;28;20029;-85
2023/04/17 10:14:51;;;;;;;11.15;8.65;;;;;;;;;;10497324;28;20048;-85
2023/04/17 10:19:52;;;;;;;10.68;8.63;;;;;;;;;;10497285;28;20044;-85
2023/04/17 10:25:25;;;;;;;10.57;9.15;;;;;;;;;;10500621;28;20023;-84
2023/04/17 10:30:45;;;;;;;13.40;7.10;;;;;;;;;;10492423;28;20046;-85
2023/04/17 10:35:46;;;;;;;8.80;7.73;;;;;;;;;;10505160;28;20115;-85
2023/04/17 10:40:50;;;;;;;8.80;7.72;;;;;;;;;;10524036;28;20028;-85
2023/04/17 10:45:59;;;;;;;14.10;11.02;;;;;;;;;;10507352;28;20028;-84
2023/04/17 10:51:02;;;;;;;11.70;9.35;;;;;;;;;;10506727;28;20590;-85
2023/04/17 10:56:09;;;;;;;14.93;12.68;;;;;;;;;;10507933;28;20025;-85
2023/04/17 11:01:15;;;;;;;13.27;9.38;;;;;;;;;;10504378;28;20035;-85
2023/04/17 11:06:16;;;;;;;11.65;8.85;;;;;;;;;;10502714;28;20024;-84
2023/04/17 11:11:17;;;;;;;7.53;6.80;;;;;;;;;;10509376;28;20058;-85
2023/04/17 11:16:19;;;;;;;9.25;7.70;;;;;;;;;;10523875;28;20048;-85
2023/04/17 11:21:21;;;;;;;9.30;7.07;;;;;;;;;;10505883;28;20033;-86
2023/04/17 11:26:22;;;;;;;8.80;7.43;;;;;;;;;;10499332;28;20471;-85
2023/04/17 11:31:23;;;;;;;9.63;7.10;;;;;;;;;;10518028;28;20044;-86
2023/04/17 11:36:25;;;;;;;9.80;8.23;;;;;;;;;;10521840;28;20024;-85
2023/04/17 11:41:36;;;;;;;8.52;7.68;;;;;;;;;;10502471;28;20051;-85
2023/04/17 11:46:38;;;;;;;9.38;6.85;;;;;;;;;;10502925;28;20039;-84
2023/04/17 11:51:45;;;;;;;8.02;7.00;;;;;;;;;;10505115;28;20041;-84
2023/04/17 11:57:00;;;;;;;10.52;8.68;;;;;;;;;;10501578;28;20134;-84
2023/04/17 12:02:02;;;;;;;9.27;7.28;;;;;;;;;;10507268;22;20108;-85
2023/04/17 12:07:38;;;;;;;7.53;6.53;;;;;;;;;;10429114;28;20105;-85
2023/04/17 12:12:39;;;;;;;9.48;7.65;;;;;;;;;;10431167;28;20531;-84
2023/04/17 12:17:40;;;;;;;9.43;8.05;;;;;;;;;;10433296;28;20045;-86
2023/04/17 12:22:46;;;;;;;10.13;8.05;;;;;;;;;;10412333;28;20030;-86
2023/04/17 12:28:12;;;;;;;12.43;10.52;;;;;;;;;;10413937;28;20032;-87
2023/04/17 12:33:13;;;;;;;7.88;6.85;;;;;;;;;;10414752;28;20041;-86
2023/04/17 12:38:17;;;;;;;8.82;6.90;;;;;;;;;;10412152;28;20025;-85
2023/04/17 12:43:22;;;;;;;10.48;7.88;;;;;;;;;;10395596;28;20076;-86
2023/04/17 12:48:27;;;;;;;8.25;7.28;;;;;;;;;;10428448;28;20038;-86
2023/04/17 12:53:29;;;;;;;12.85;8.30;;;;;;;;;;10426145;28;20034;-85
2023/04/17 12:58:30;;;;;;;10.55;8.50;;;;;;;;;;10427515;28;20036;-84
2023/04/17 13:03:32;;;;;;;11.52;7.60;;;;;;;;;;10410601;28;20210;-83
2023/04/17 13:08:35;;;;;;;11.57;8.73;;;;;;;;;;10410783;28;20109;-86
2023/04/17 13:13:39;;;;;;;12.18;8.65;;;;;;;;;;10410900;28;20475;-84
2023/04/17 13:18:40;;;;;;;10.40;7.10;;;;;;;;;;10413441;28;20057;-85
2023/04/17 13:23:41;;;;;;;8.02;7.15;;;;;;;;;;10411466;28;20064;-85
2023/04/17 13:28:42;;;;;;;8.90;7.35;;;;;;;;;;10410789;28;20072;-84
2023/04/17 13:33:43;;;;;;;10.18;7.45;;;;;;;;;;10410295;28;20159;-84
2023/04/17 13:38:44;;;;;;;10.02;7.18;;;;;;;;;;10418044;28;20025;-84
2023/04/17 13:43:46;;;;;;;9.45;8.30;;;;;;;;;;10421952;28;20033;-83
2023/04/17 13:48:47;;;;;;;11.05;7.95;;;;;;;;;;10410481;28;20097;-84
2023/04/17 13:53:48;;;;;;;9.88;7.88;;;;;;;;;;10409964;28;20032;-84
2023/04/17 13:58:51;;;;;;;11.27;7.82;;;;;;;;;;10412583;28;20089;-85
2023/04/17 14:03:52;;;;;;;10.70;8.20;;;;;;;;;;10415588;28;20101;-84
2023/04/17 14:08:54;;;;;;;7.75;6.88;;;;;;;;;;10414138;28;20036;-85
2023/04/17 14:13:55;;;;;;;9.75;7.45;;;;;;;;;;10422593;28;20026;-84
2023/04/17 14:18:56;;;;;;;8.77;7.18;;;;;;;;;;10425894;28;20479;-85
2023/04/17 14:23:59;;;;;;;11.20;8.15;;;;;;;;;;10425054;28;20063;-84
2023/04/17 14:29:01;;;;;;;16.45;8.20;;;;;;;;;;10441079;28;20491;-85
2023/04/17 14:34:02;;;;;;;12.65;11.35;;;;;;;;;;10423003;28;20022;-85
2023/04/17 14:39:03;;;;;;;8.57;6.63;;;;;;;;;;10421047;28;20025;-84
2023/04/17 14:44:05;;;;;;;10.65;8.13;;;;;;;;;;10437240;28;20026;-85
2023/04/17 14:49:13;;;;;;;11.43;8.18;;;;;;;;;;10422965;28;20025;-85
2023/04/17 14:54:14;;;;;;;9.00;7.68;;;;;;;;;;10420075;28;20068;-86
2023/04/17 14:59:16;;;;;;;8.05;7.25;;;;;;;;;;10426444;28;20029;-85
2023/04/17 15:04:17;;;;;;;9.48;7.32;;;;;;;;;;10428146;28;20034;-86
2023/04/17 15:09:18;;;;;;;12.73;11.35;;;;;;;;;;10411754;28;20029;-86
2023/04/17 15:14:20;;;;;;;30.48;17.45;;;;;;;;;;10426855;28;20029;-85
2023/04/17 15:19:21;;;;;;;7.65;6.60;;;;;;;;;;10435690;28;20029;-83
2023/04/17 15:24:22;;;;;;;8.43;5.63;;;;;;;;;;10424703;28;20120;-85
2023/04/17 15:29:24;;;;;;;6.18;5.47;;;;;;;;;;10431150;28;20040;-85
2023/04/17 15:34:25;;;;;;;10.48;7.00;;;;;;;;;;10435914;28;20075;-84
2023/04/17 15:39:26;;;;;;;9.98;6.10;;;;;;;;;;10433718;28;20125;-85
2023/04/17 15:44:28;;;;;;;10.25;7.82;;;;;;;;;;10420096;28;20088;-85
2023/04/17 15:49:29;;;;;;;9.40;7.07;;;;;;;;;;10434555;28;20523;-85
2023/04/17 15:54:31;;;;;;;11.27;9.40;;;;;;;;;;10418333;28;20018;-85
2023/04/17 15:59:36;;;;;;;9.38;8.25;;;;;;;;;;10436361;28;20192;-85
2023/04/17 16:04:38;;;;;;;9.07;6.78;;;;;;;;;;10417189;28;20045;-85
2023/04/17 16:09:40;;;;;;;7.13;6.30;;;;;;;;;;10418867;28;20033;-84
2023/04/17 16:14:41;;;;;;;9.00;6.85;;;;;;;;;;10424811;28;20075;-85
2023/04/17 16:19:42;;;;;;;6.90;5.43;;;;;;;;;;10447461;28;20029;-83
2023/04/17 16:24:43;;;;;;;6.78;5.50;;;;;;;;;;10421005;28;20030;-85
2023/04/17 16:29:44;;;;;;;8.43;7.05;;;;;;;;;;10427906;28;20399;-84
2023/04/17 16:34:46;;;;;;;7.88;6.82;;;;;;;;;;10429041;28;20026;-85
2023/04/17 16:39:47;;;;;;;9.88;6.57;;;;;;;;;;10428043;28;20033;-86
2023/04/17 16:44:48;;;;;;;10.38;7.78;;;;;;;;;;10432217;28;20025;-85
2023/04/17 16:49:49;;;;;;;9.95;6.95;;;;;;;;;;10412794;28;20428;-85
2023/04/17 16:54:50;;;;;;;8.48;6.30;;;;;;;;;;10412933;28;20049;-85
2023/04/17 16:59:51;;;;;;;8.75;7.00;;;;;;;;;;10416735;28;20030;-85
2023/04/17 17:04:52;;;;;;;10.38;7.50;;;;;;;;;;10419944;28;20037;-85
2023/04/17 17:09:53;;;;;;;7.90;6.55;;;;;;;;;;10419969;28;20029;-86
2023/04/17 17:14:54;;;;;;;10.52;8.23;;;;;;;;;;10418397;28;20472;-86
2023/04/17 17:19:55;;;;;;;15.02;9.75;;;;;;;;;;10418097;28;20032;-86
2023/04/17 17:24:56;;;;;;;9.48;8.45;;;;;;;;;;10420249;28;20495;-86
2023/04/17 17:29:57;;;;;;;7.72;6.63;;;;;;;;;;10426034;28;20044;-85
2023/04/17 17:34:58;;;;;;;8.13;6.40;;;;;;;;;;10456045;28;20032;-86
2023/04/17 17:40:02;;;;;;;9.05;6.80;;;;;;;;;;10412589;28;20017;-86
2023/04/17 17:45:04;;;;;;;7.00;5.85;;;;;;;;;;10407067;28;20426;-86
2023/04/17 17:50:06;;;;;;;8.07;6.93;;;;;;;;;;10425679;28;20415;-86
2023/04/17 17:55:08;;;;;;;7.28;6.57;;;;;;;;;;10410027;28;20097;-86
2023/04/17 18:00:10;;;;;;;5.97;4.60;;;;;;;;;;10408637;28;20250;-86
2023/04/17 18:05:11;;;;;;;6.38;5.20;;;;;;;;;;10500162;22;20445;-83
2023/04/17 18:10:12;;;;;;;5.72;5.03;;;;;;;;;;10466612;28;20048;-82
2023/04/17 18:15:13;;;;;;;8.25;6.78;;;;;;;;;;10473366;28;20117;-83
2023/04/17 18:20:14;;;;;;;6.07;5.25;;;;;;;;;;10450814;28;20128;-83
2023/04/17 18:25:15;;;;;;;6.85;6.15;;;;;;;;;;10451155;28;20147;-83
2023/04/17 18:30:16;;;;;;;4.90;4.40;;;;;;;;;;10469968;28;20049;-83
2023/04/17 18:35:17;;;;;;;7.97;6.03;;;;;;;;;;10451118;28;20053;-84
2023/04/17 18:40:19;;;;;;;6.63;5.93;;;;;;;;;;10453351;28;20399;-84
2023/04/17 18:45:20;;;;;;;6.68;4.90;;;;;;;;;;10455419;28;20029;-83
2023/04/17 18:50:21;;;;;;;7.72;6.93;;;;;;;;;;10455888;28;20129;-84
2023/04/17 18:55:22;;;;;;;6.20;5.57;;;;;;;;;;10459106;28;20025;-82
2023/04/17 19:00:23;;;;;;;7.35;6.63;;;;;;;;;;10486153;28;20033;-84
2023/04/17 19:05:25;;;;;;;8.13;6.57;;;;;;;;;;10482608;28;20036;-81
2023/04/17 19:10:28;;;;;;;6.93;5.90;;;;;;;;;;10489184;28;20022;-81
2023/04/17 19:15:29;;;;;;;6.55;5.93;;;;;;;;;;10488419;28;20037;-83
